Time;durP1;ratioP1;P1;durP2;ratioP2;P2;SDS_P1;SDS_P2;PMS_P1;PMS_P2;Temp;Humidity;BMP_temperature;BMP_pressure;BME280_temperature;BME280_humidity;BME280_pressure;Samples;Min_cycle;Max_cycle;Signal;HPM_P1;HPM_P2
2021/09/08 00:00:47;;;;;;;29.00;14.27;;;;;;;16.68;86.01;102109.34;5036881;28;20064;-65
2021/09/08 00:03:15;;;;;;;28.40;15.38;;;;;;;16.65;86.12;102105.88;5041514;28;20083;-65
2021/09/08 00:05:43;;;;;;;28.70;15.18;;;;;;;16.60;86.47;102111.44;5038197;28;20059;-65
2021/09/08 00:08:10;;;;;;;26.67;15.02;;;;;;;16.55;86.82;102102.66;5040509;28;20233;-65
2021/09/08 00:10:39;;;;;;;30.85;15.43;;;;;;;16.50;87.60;102104.63;5041386;28;20452;-65
2021/09/08 00:13:07;;;;;;;30.73;15.70;;;;;;;16.46;88.10;102092.22;5038024;28;20045;-65
2021/09/08 00:15:35;;;;;;;30.33;15.90;;;;;;;16.43;87.59;102094.09;5040691;28;20071;-65
2021/09/08 00:18:03;;;;;;;30.35;15.88;;;;;;;16.40;88.25;102079.88;5038972;28;20064;-65
2021/09/08 00:20:31;;;;;;;31.95;16.08;;;;;;;16.42;88.33;102080.69;5037899;28;20052;-65
2021/09/08 00:22:59;;;;;;;32.25;15.60;;;;;;;16.44;88.76;102084.19;5035612;28;20045;-65
2021/09/08 00:25:27;;;;;;;31.63;15.95;;;;;;;16.45;88.52;102067.13;5038213;28;20140;-65
2021/09/08 00:27:56;;;;;;;28.75;15.25;;;;;;;16.46;88.15;102071.53;5039202;28;20058;-69
2021/09/08 00:30:24;;;;;;;30.52;16.65;;;;;;;16.48;88.13;102067.00;5036768;28;20056;-69
2021/09/08 00:32:52;;;;;;;31.45;16.92;;;;;;;16.46;88.01;102068.84;5037128;28;20144;-69
2021/09/08 00:35:20;;;;;;;29.95;16.23;;;;;;;16.47;87.48;102067.06;5036444;28;20048;-69
2021/09/08 00:37:47;;;;;;;32.42;16.38;;;;;;;16.41;86.99;102065.44;5041052;28;20090;-69
2021/09/08 00:40:15;;;;;;;31.88;16.90;;;;;;;16.36;87.26;102068.34;5037353;28;20071;-69
2021/09/08 00:42:43;;;;;;;33.58;18.10;;;;;;;16.32;86.97;102060.41;5039017;28;20111;-69
2021/09/08 00:45:13;;;;;;;30.55;16.27;;;;;;;16.27;87.22;102059.72;5037863;28;20080;-69
2021/09/08 00:47:41;;;;;;;30.40;16.65;;;;;;;16.19;87.00;102057.28;5038468;28;20080;-69
2021/09/08 00:50:11;;;;;;;34.58;18.98;;;;;;;16.14;86.82;102049.38;5031259;28;20084;-69
2021/09/08 00:52:39;;;;;;;37.95;19.13;;;;;;;16.13;88.38;102057.53;5036794;28;20044;-65
2021/09/08 00:55:08;;;;;;;36.65;18.27;;;;;;;16.12;89.30;102047.66;5036341;28;20581;-65
2021/09/08 00:57:37;;;;;;;31.00;17.52;;;;;;;16.06;89.26;102049.66;5034960;28;20489;-65
2021/09/08 01:00:06;;;;;;;36.03;18.67;;;;;;;16.07;89.92;102037.06;5037635;28;20468;-65
2021/09/08 01:02:38;;;;;;;32.85;18.20;;;;;;;16.10;90.06;102036.97;5037051;28;20066;-65
2021/09/08 01:05:07;;;;;;;30.58;17.42;;;;;;;16.10;89.99;102034.25;5037593;28;20060;-65
2021/09/08 01:07:36;;;;;;;33.83;17.95;;;;;;;16.10;89.37;102033.41;5037086;28;20148;-65
2021/09/08 01:10:05;;;;;;;36.75;19.23;;;;;;;16.09;89.50;102035.22;5037731;28;20106;-65
2021/09/08 01:12:33;;;;;;;34.38;19.13;;;;;;;16.10;89.18;102022.63;5037993;28;20045;-65
2021/09/08 01:15:01;;;;;;;33.47;17.55;;;;;;;16.06;89.38;102027.25;5038806;28;20056;-65
2021/09/08 01:17:28;;;;;;;36.28;19.33;;;;;;;16.04;89.74;102026.44;5035858;28;20094;-65
2021/09/08 01:19:58;;;;;;;38.70;19.30;;;;;;;16.00;89.34;102027.47;5037403;28;20084;-65
2021/09/08 01:22:29;;;;;;;37.80;19.13;;;;;;;15.97;89.91;102032.94;5037420;28;20229;-65
2021/09/08 01:24:59;;;;;;;42.25;20.48;;;;;;;15.93;89.50;102023.22;5037895;28;20061;-65
2021/09/08 01:27:27;;;;;;;39.65;19.73;;;;;;;15.93;90.30;102024.09;5031093;28;20049;-66
2021/09/08 01:29:55;;;;;;;34.08;18.35;;;;;;;15.88;90.45;102028.78;5036458;28;20052;-65
2021/09/08 01:32:31;;;;;;;36.55;19.27;;;;;;;15.86;89.79;102023.44;5037475;28;20428;-65
2021/09/08 01:34:59;;;;;;;33.47;18.40;;;;;;;15.84;90.22;102022.63;5038413;28;20491;-65
2021/09/08 01:37:28;;;;;;;38.90;21.00;;;;;;;15.79;90.01;102021.03;5038759;28;20055;-69
2021/09/08 01:39:56;;;;;;;36.85;17.88;;;;;;;15.76;90.13;102021.13;5038796;28;20606;-69
2021/09/08 01:42:25;;;;;;;41.10;21.63;;;;;;;15.72;90.37;102020.34;5035534;28;20130;-69
2021/09/08 01:44:52;;;;;;;36.30;18.90;;;;;;;15.68;90.37;102024.94;5034710;28;20107;-69
2021/09/08 01:47:20;;;;;;;42.30;20.08;;;;;;;15.60;89.63;102018.09;5035501;28;20063;-69
2021/09/08 01:49:48;;;;;;;37.10;19.73;;;;;;;15.54;89.75;102018.28;5037051;28;20069;-69
2021/09/08 01:52:16;;;;;;;36.03;18.48;;;;;;;15.51;90.58;102016.59;5033215;28;20053;-69
2021/09/08 01:54:44;;;;;;;36.80;20.00;;;;;;;15.46;90.59;102019.44;5032676;28;20045;-65
2021/09/08 01:57:11;;;;;;;39.63;20.15;;;;;;;15.41;91.23;102018.69;5036549;28;20415;-65
2021/09/08 01:59:40;;;;;;;33.58;17.23;;;;;;;15.37;90.40;102017.03;5036079;28;20048;-65
2021/09/08 02:02:08;;;;;;;34.97;18.50;;;;;;;15.32;90.84;102016.31;5037307;28;20144;-65
2021/09/08 02:04:36;;;;;;;37.42;19.70;;;;;;;15.29;91.69;102016.44;5036112;28;20064;-65
2021/09/08 02:07:05;;;;;;;38.83;19.65;;;;;;;15.28;92.98;102014.66;5033949;28;20423;-65
2021/09/08 02:09:33;;;;;;;35.45;17.88;;;;;;;15.32;93.98;102011.81;5033914;28;20076;-65
2021/09/08 02:12:01;;;;;;;35.25;18.95;;;;;;;15.32;93.53;102009.13;5035575;28;20045;-65
2021/09/08 02:14:29;;;;;;;38.38;19.77;;;;;;;15.34;93.48;102014.47;5033352;28;20053;-65
2021/09/08 02:16:58;;;;;;;36.83;19.67;;;;;;;15.35;93.69;102007.28;5036933;28;20251;-65
2021/09/08 02:19:26;;;;;;;39.72;20.17;;;;;;;15.36;93.09;102009.91;5034240;28;20049;-69
2021/09/08 02:21:54;;;;;;;38.00;19.42;;;;;;;15.37;93.16;102008.09;5035214;28;20049;-69
2021/09/08 02:24:21;;;;;;;40.78;20.45;;;;;;;15.37;92.54;102005.41;5039838;28;20243;-69
2021/09/08 02:26:49;;;;;;;37.20;20.48;;;;;;;15.37;92.57;102003.59;5033446;28;20049;-69
2021/09/08 02:29:17;;;;;;;38.58;19.23;;;;;;;15.36;92.31;101992.88;5035817;28;20172;-69
2021/09/08 02:31:45;;;;;;;35.40;19.38;;;;;;;15.34;92.32;101998.34;5035581;28;20090;-69
2021/09/08 02:34:14;;;;;;;37.03;19.33;;;;;;;15.31;92.27;102001.13;5034618;28;20060;-69
2021/09/08 02:36:42;;;;;;;41.47;19.92;;;;;;;15.25;91.53;102002.19;5038986;28;20084;-65
2021/09/08 02:39:11;;;;;;;37.72;20.20;;;;;;;15.20;91.95;102008.66;5036269;28;20094;-65
2021/09/08 02:41:38;;;;;;;39.65;18.88;;;;;;;15.14;91.57;102009.75;5036589;28;20052;-65
2021/09/08 02:44:06;;;;;;;38.25;20.38;;;;;;;15.10;92.42;102013.44;5034400;28;20053;-69
2021/09/08 02:46:34;;;;;;;37.08;19.08;;;;;;;15.05;91.92;102008.22;5030804;28;20053;-69
2021/09/08 02:49:03;;;;;;;37.13;19.13;;;;;;;15.01;92.32;102009.25;5034961;28;20045;-68
2021/09/08 02:51:32;;;;;;;39.28;22.60;;;;;;;15.00;92.50;102010.19;5036402;28;20482;-69
2021/09/08 02:53:59;;;;;;;38.97;19.08;;;;;;;14.97;92.03;102004.03;5032415;28;20048;-69
2021/09/08 02:56:27;;;;;;;34.85;18.88;;;;;;;14.93;91.99;102001.44;5032172;28;20314;-69
2021/09/08 02:58:55;;;;;;;38.38;20.65;;;;;;;14.89;93.05;102001.59;5035157;28;20107;-69
2021/09/08 03:01:22;;;;;;;36.15;20.38;;;;;;;14.91;93.84;101988.97;5036578;28;20089;-68
2021/09/08 03:03:53;;;;;;;40.08;19.25;;;;;;;14.90;94.07;101997.97;5037692;28;20055;-70
2021/09/08 03:06:21;;;;;;;34.38;19.08;;;;;;;14.86;93.94;101990.91;5035407;28;20053;-69
2021/09/08 03:08:50;;;;;;;39.15;20.52;;;;;;;14.85;93.82;101994.56;5038212;28;20053;-69
2021/09/08 03:11:18;;;;;;;35.70;18.83;;;;;;;14.81;93.70;101991.06;5038268;28;20053;-65
2021/09/08 03:13:46;;;;;;;35.45;18.38;;;;;;;14.81;94.07;101987.50;5033949;28;20469;-65
2021/09/08 03:16:15;;;;;;;40.70;19.95;;;;;;;14.85;94.57;101986.50;5037095;28;20152;-65
2021/09/08 03:18:43;;;;;;;38.05;19.58;;;;;;;14.87;94.22;101971.19;5034605;28;20063;-65
2021/09/08 03:21:10;;;;;;;37.42;19.30;;;;;;;14.90;93.79;101974.66;5036130;28;20049;-65
2021/09/08 03:23:38;;;;;;;41.80;20.70;;;;;;;14.97;93.81;101971.78;5036137;28;20142;-65
2021/09/08 03:26:07;;;;;;;42.67;21.17;;;;;;;14.99;93.36;101970.78;5034094;28;20052;-65
2021/09/08 03:28:35;;;;;;;39.85;19.45;;;;;;;15.00;93.22;101963.59;5040664;28;20106;-65
2021/09/08 03:31:03;;;;;;;36.92;20.20;;;;;;;15.00;92.92;101964.50;5037886;28;20326;-65
2021/09/08 03:33:31;;;;;;;40.28;21.60;;;;;;;15.03;92.66;101964.38;5041899;28;20397;-65
2021/09/08 03:35:59;;;;;;;37.95;21.25;;;;;;;15.04;92.66;101965.28;5037432;28;20072;-69
2021/09/08 03:38:27;;;;;;;42.33;20.67;;;;;;;15.03;92.54;101972.44;5036521;28;20080;-69
2021/09/08 03:40:55;;;;;;;39.17;20.00;;;;;;;15.03;91.98;101964.38;5040565;28;20052;-69
2021/09/08 03:43:24;;;;;;;39.15;21.83;;;;;;;15.02;92.58;101964.47;5036582;28;20053;-69
2021/09/08 03:45:54;;;;;;;41.80;22.65;;;;;;;15.02;92.30;101962.63;5042561;28;20063;-65
2021/09/08 03:48:22;;;;;;;43.00;22.98;;;;;;;15.00;92.21;101963.59;5038046;28;20420;-65
2021/09/08 03:50:50;;;;;;;38.97;19.70;;;;;;;14.98;92.56;101960.09;5038645;28;20053;-65
2021/09/08 03:53:18;;;;;;;43.00;21.33;;;;;;;14.97;92.70;101953.84;5037016;28;20053;-65
2021/09/08 03:55:46;;;;;;;40.08;20.52;;;;;;;14.92;92.30;101951.31;5037621;28;20052;-69
2021/09/08 03:58:14;;;;;;;40.60;20.08;;;;;;;14.89;92.51;101942.47;5037774;28;20067;-69
2021/09/08 04:00:43;;;;;;;39.50;20.73;;;;;;;14.88;93.04;101949.66;5037586;28;20049;-69
2021/09/08 04:03:12;;;;;;;43.08;21.35;;;;;;;14.88;92.96;101948.75;5039380;28;20049;-69
2021/09/08 04:05:40;;;;;;;37.53;20.42;;;;;;;14.88;92.88;101951.44;5038137;28;20485;-69
2021/09/08 04:08:08;;;;;;;43.15;21.10;;;;;;;14.86;93.11;101948.81;5039738;28;20556;-70
2021/09/08 04:10:36;;;;;;;43.92;22.55;;;;;;;14.86;93.05;101940.75;5039651;28;20056;-65
2021/09/08 04:13:04;;;;;;;41.17;20.40;;;;;;;14.87;93.00;101941.63;5036137;28;20075;-64
2021/09/08 04:15:32;;;;;;;42.60;19.77;;;;;;;14.88;93.35;101936.22;5039647;28;20181;-64
2021/09/08 04:18:02;;;;;;;43.17;22.02;;;;;;;14.89;92.73;101931.72;5035057;28;20087;-64
2021/09/08 04:20:30;;;;;;;40.28;19.27;;;;;;;14.89;92.95;101931.72;5039849;28;20157;-65
2021/09/08 04:22:57;;;;;;;40.95;21.15;;;;;;;14.90;93.13;101933.47;5036368;28;20069;-64
2021/09/08 04:25:25;;;;;;;40.08;20.27;;;;;;;14.90;93.20;101930.81;5038010;28;20053;-64
2021/09/08 04:27:53;;;;;;;39.72;21.05;;;;;;;14.89;93.16;101929.91;5041128;28;20049;-64
2021/09/08 04:30:21;;;;;;;40.42;20.52;;;;;;;14.90;93.28;101928.97;5036090;28;20052;-66
2021/09/08 04:32:49;;;;;;;41.38;22.15;;;;;;;14.94;93.37;101933.31;5035879;28;20095;-66
2021/09/08 04:35:18;;;;;;;43.55;22.00;;;;;;;14.93;92.81;101934.25;5035943;28;20589;-66
2021/09/08 04:37:46;;;;;;;44.03;21.27;;;;;;;14.90;92.96;101934.34;5036979;28;20053;-66
2021/09/08 04:40:14;;;;;;;39.13;21.50;;;;;;;14.92;93.01;101928.94;5039023;28;20064;-66
2021/09/08 04:42:42;;;;;;;40.30;20.98;;;;;;;14.90;93.03;101926.28;5036732;28;20045;-66
2021/09/08 04:45:11;;;;;;;42.72;20.27;;;;;;;14.90;93.09;101926.28;5035696;28;20053;-66
2021/09/08 04:47:38;;;;;;;38.85;21.65;;;;;;;14.89;93.34;101923.66;5037763;28;20094;-66
2021/09/08 04:50:08;;;;;;;42.80;22.38;;;;;;;14.85;93.43;101919.31;5040406;28;20061;-66
2021/09/08 04:52:37;;;;;;;45.17;21.85;;;;;;;14.84;93.41;101930.97;5038193;28;20076;-66
2021/09/08 04:55:07;;;;;;;36.25;21.60;;;;;;;14.79;93.69;101930.25;5034086;28;20052;-66
2021/09/08 04:57:36;;;;;;;40.88;21.10;;;;;;;14.77;93.63;101932.13;5038437;28;20053;-67
2021/09/08 05:00:05;;;;;;;43.63;22.05;;;;;;;14.76;93.91;101917.78;5036808;28;20103;-67
2021/09/08 05:02:33;;;;;;;40.15;22.25;;;;;;;14.74;93.96;101915.19;5040515;28;20045;-64
2021/09/08 05:05:03;;;;;;;43.28;21.88;;;;;;;14.74;94.13;101917.88;5036863;28;20295;-64
2021/09/08 05:07:31;;;;;;;43.88;21.85;;;;;;;14.79;94.12;101922.19;5040081;28;20292;-64
2021/09/08 05:10:00;;;;;;;42.47;20.70;;;;;;;14.76;94.03;101925.84;5035702;28;20099;-67
2021/09/08 05:12:28;;;;;;;46.78;23.55;;;;;;;14.75;94.26;101918.72;5040037;28;20048;-64
2021/09/08 05:14:56;;;;;;;45.70;23.08;;;;;;;14.73;94.24;101910.72;5038869;28;20059;-64
2021/09/08 05:17:24;;;;;;;43.78;24.27;;;;;;;14.77;94.38;101916.00;5033950;28;20049;-64
2021/09/08 05:19:52;;;;;;;44.53;22.15;;;;;;;14.79;94.17;101919.50;5038734;28;20537;-65
2021/09/08 05:22:20;;;;;;;44.38;23.90;;;;;;;14.77;94.46;101911.50;5034305;28;20508;-64
2021/09/08 05:24:47;;;;;;;41.42;22.27;;;;;;;14.78;94.55;101907.91;5035241;28;20114;-64
2021/09/08 05:27:16;;;;;;;41.40;21.25;;;;;;;14.79;94.51;101908.75;5037730;28;20100;-64
2021/09/08 05:29:44;;;;;;;45.60;23.92;;;;;;;14.83;94.26;101914.00;5036467;28;20098;-65
2021/09/08 05:32:12;;;;;;;44.72;23.27;;;;;;;14.83;94.31;101910.41;5039866;28;20080;-64
2021/09/08 05:34:40;;;;;;;43.83;22.45;;;;;;;14.86;94.39;101905.81;5035593;28;20041;-64
2021/09/08 05:37:08;;;;;;;41.47;22.65;;;;;;;14.86;94.42;101913.00;5035863;28;20559;-64
2021/09/08 05:39:36;;;;;;;44.88;22.42;;;;;;;14.86;94.45;101908.50;5036453;28;20075;-65
2021/09/08 05:42:04;;;;;;;41.92;23.52;;;;;;;14.90;94.54;101907.47;5036458;28;20568;-65
2021/09/08 05:44:33;;;;;;;41.25;21.95;;;;;;;14.97;94.19;101904.59;5040470;28;20700;-65
2021/09/08 05:47:01;;;;;;;46.15;22.10;;;;;;;15.07;94.15;101898.84;5032729;28;20049;-65
2021/09/08 05:49:29;;;;;;;46.05;22.88;;;;;;;15.18;93.51;101902.97;5039253;28;20209;-65
2021/09/08 05:51:56;;;;;;;45.80;22.80;;;;;;;15.28;93.40;101902.59;5035889;28;20056;-65
2021/09/08 05:54:24;;;;;;;45.92;24.63;;;;;;;15.36;92.81;101896.97;5034842;28;20080;-65
2021/09/08 05:56:52;;;;;;;42.05;23.23;;;;;;;15.49;92.49;101906.38;5037414;28;20057;-65
2021/09/08 05:59:20;;;;;;;44.83;23.08;;;;;;;15.61;91.74;101901.44;5035877;28;20084;-65
2021/09/08 06:01:49;;;;;;;44.22;23.25;;;;;;;15.76;91.30;101902.75;5034953;28;20053;-65
2021/09/08 06:04:18;;;;;;;44.88;22.83;;;;;;;15.85;90.79;101900.59;5033761;28;20083;-66
2021/09/08 06:06:45;;;;;;;42.40;22.85;;;;;;;15.98;90.31;101900.13;5035947;28;20056;-67
2021/09/08 06:09:13;;;;;;;44.33;23.98;;;;;;;16.13;89.60;101902.22;5033671;28;20099;-65
2021/09/08 06:11:41;;;;;;;46.95;24.10;;;;;;;16.22;89.03;101898.31;5035838;28;20127;-65
2021/09/08 06:14:11;;;;;;;40.60;22.35;;;;;;;16.31;88.58;101900.66;5038112;28;20268;-65
2021/09/08 06:16:40;;;;;;;43.97;23.15;;;;;;;16.46;87.64;101896.44;5034092;28;20550;-65
2021/09/08 06:19:09;;;;;;;43.42;22.90;;;;;;;16.52;86.97;101888.13;5038498;28;20107;-65
2021/09/08 06:21:37;;;;;;;40.55;22.27;;;;;;;16.69;86.66;101887.44;5034295;28;20080;-65
2021/09/08 06:24:05;;;;;;;44.40;23.02;;;;;;;16.73;86.08;101893.59;5035968;28;20049;-67
2021/09/08 06:26:34;;;;;;;47.17;24.20;;;;;;;16.80;86.02;101890.59;5036894;28;20084;-65
2021/09/08 06:29:02;;;;;;;42.85;21.75;;;;;;;16.96;85.26;101887.28;5032544;28;20052;-65
2021/09/08 06:31:30;;;;;;;39.97;22.58;;;;;;;17.06;85.16;101883.25;5038350;28;20059;-65
2021/09/08 06:33:57;;;;;;;43.33;24.33;;;;;;;17.18;84.40;101880.00;5031904;28;20444;-65
2021/09/08 06:36:26;;;;;;;42.42;23.83;;;;;;;17.21;83.66;101878.13;5037610;28;20049;-65
2021/09/08 06:38:55;;;;;;;41.95;22.80;;;;;;;17.26;83.51;101878.78;5038162;28;20044;-65
2021/09/08 06:41:23;;;;;;;44.65;24.08;;;;;;;17.28;82.96;101880.50;5036531;28;20048;-65
2021/09/08 06:43:52;;;;;;;44.20;23.30;;;;;;;17.47;82.80;101877.84;5038754;28;20400;-65
2021/09/08 06:46:20;;;;;;;41.60;22.23;;;;;;;17.53;82.14;101877.56;5033480;28;20053;-65
2021/09/08 06:48:48;;;;;;;39.20;21.45;;;;;;;17.69;81.80;101864.28;5034500;28;20055;-65
2021/09/08 06:51:16;;;;;;;44.15;22.85;;;;;;;17.77;81.20;101872.00;5032608;28;20122;-65
2021/09/08 06:53:45;;;;;;;43.67;22.80;;;;;;;18.11;80.12;101865.06;5036904;28;20086;-65
2021/09/08 06:56:13;;;;;;;43.55;22.88;;;;;;;18.19;79.40;101860.19;5036278;28;20053;-65
2021/09/08 06:58:41;;;;;;;40.97;22.35;;;;;;;18.42;78.86;101859.06;5032416;28;20225;-64
2021/09/08 07:01:09;;;;;;;43.30;23.85;;;;;;;18.55;77.31;101856.63;5035345;28;20107;-65
2021/09/08 07:03:37;;;;;;;42.25;22.98;;;;;;;18.78;77.25;101852.78;5038266;28;20061;-65
2021/09/08 07:06:05;;;;;;;42.65;21.55;;;;;;;19.12;76.36;101853.78;5043555;28;20053;-65
2021/09/08 07:08:33;;;;;;;39.95;21.15;;;;;;;19.22;75.25;101856.88;5041584;28;20045;-65
2021/09/08 07:11:02;;;;;;;39.92;21.67;;;;;;;19.03;74.60;101857.84;5037786;28;20425;-65
2021/09/08 07:13:30;;;;;;;41.40;22.13;;;;;;;19.10;74.85;101854.81;5038688;28;20064;-64
2021/09/08 07:15:58;;;;;;;39.78;21.45;;;;;;;19.42;73.68;101855.81;5038205;28;20054;-65
2021/09/08 07:18:26;;;;;;;36.00;21.65;;;;;;;19.57;73.15;101854.13;5040254;28;20063;-65
2021/09/08 07:20:54;;;;;;;41.22;23.02;;;;;;;19.59;73.01;101854.91;5039602;28;20054;-65
2021/09/08 07:23:21;;;;;;;38.83;22.08;;;;;;;19.88;72.67;101856.06;5038061;28;20143;-65
2021/09/08 07:25:49;;;;;;;37.05;21.08;;;;;;;19.98;72.31;101844.72;5040349;28;20082;-65
2021/09/08 07:28:19;;;;;;;39.53;22.13;;;;;;;20.12;71.22;101848.38;5039876;28;20044;-68
2021/09/08 07:30:48;;;;;;;42.50;21.80;;;;;;;20.21;70.71;101846.13;5040721;28;20489;-69
2021/09/08 07:33:16;;;;;;;41.65;21.90;;;;;;;20.20;70.16;101847.97;5039333;28;20056;-69
2021/09/08 07:35:44;;;;;;;38.53;21.75;;;;;;;20.52;69.61;101835.28;5037713;28;20152;-69
2021/09/08 07:38:12;;;;;;;37.70;21.92;;;;;;;20.50;69.68;101829.06;5041181;28;20080;-69
2021/09/08 07:40:40;;;;;;;40.08;21.55;;;;;;;20.45;68.79;101825.75;5037496;28;20779;-69
2021/09/08 07:43:08;;;;;;;38.58;21.55;;;;;;;20.55;68.27;101833.34;5040557;28;20465;-69
2021/09/08 07:45:37;;;;;;;43.22;22.98;;;;;;;20.86;67.66;101825.19;5038203;28;20107;-69
2021/09/08 07:48:06;;;;;;;32.40;19.48;;;;;;;20.89;67.55;101824.09;5040829;28;20048;-69
2021/09/08 07:50:34;;;;;;;38.03;21.45;;;;;;;20.99;67.05;101824.44;5037897;28;20102;-70
2021/09/08 07:53:03;;;;;;;36.88;20.65;;;;;;;21.12;66.73;101825.44;5037672;28;20702;-70
2021/09/08 07:55:31;;;;;;;35.92;20.80;;;;;;;21.17;65.92;101820.59;5038670;28;20496;-70
2021/09/08 07:57:58;;;;;;;41.42;21.25;;;;;;;21.41;65.42;101830.91;5037682;28;20080;-70
2021/09/08 08:00:26;;;;;;;35.80;20.67;;;;;;;21.60;64.91;101831.53;5040016;28;20103;-69
2021/09/08 08:02:55;;;;;;;40.85;21.88;;;;;;;21.36;64.83;101833.91;5038348;28;20086;-69
2021/09/08 08:05:27;;;;;;;39.95;21.90;;;;;;;21.60;64.55;101833.38;5037381;28;20056;-69
2021/09/08 08:07:55;;;;;;;36.95;21.50;;;;;;;21.63;64.47;101831.34;5036779;28;20523;-65
2021/09/08 08:10:22;;;;;;;39.63;21.27;;;;;;;21.92;64.00;101825.03;5038672;28;20048;-66
2021/09/08 08:12:50;;;;;;;39.72;21.67;;;;;;;22.00;63.90;101822.69;5037324;28;20136;-65
2021/09/08 08:15:18;;;;;;;36.22;21.45;;;;;;;21.99;62.93;101821.81;5040053;28;20519;-65
2021/09/08 08:17:48;;;;;;;37.08;21.52;;;;;;;22.16;63.23;101820.69;5038942;28;20052;-66
2021/09/08 08:20:18;;;;;;;37.60;21.02;;;;;;;22.12;62.41;101816.44;5036019;28;20037;-65
2021/09/08 08:22:46;;;;;;;36.58;21.90;;;;;;;22.12;62.93;101821.03;5039315;28;20086;-66
2021/09/08 08:25:16;;;;;;;39.33;21.25;;;;;;;22.41;62.52;101815.50;5037805;28;20063;-65
2021/09/08 08:27:45;;;;;;;37.20;21.48;;;;;;;22.26;63.10;101822.84;5036841;28;20048;-65
2021/09/08 08:30:15;;;;;;;36.08;21.52;;;;;;;22.74;61.68;101817.81;5040602;28;20103;-65
2021/09/08 08:32:43;;;;;;;36.50;20.17;;;;;;;22.88;61.73;101811.41;5037114;28;20144;-65
2021/09/08 08:35:13;;;;;;;36.50;20.58;;;;;;;23.12;60.72;101815.22;5039730;28;20118;-66
2021/09/08 08:37:42;;;;;;;33.05;19.52;;;;;;;23.26;60.49;101816.09;5037337;28;20049;-65
2021/09/08 08:40:12;;;;;;;36.72;21.50;;;;;;;23.11;60.17;101821.63;5039252;28;20068;-66
2021/09/08 08:42:41;;;;;;;38.25;21.15;;;;;;;23.47;59.85;101819.13;5036121;28;20114;-66
2021/09/08 08:45:12;;;;;;;34.95;20.25;;;;;;;23.02;60.04;101822.25;5041635;28;20057;-64
2021/09/08 08:47:40;;;;;;;37.50;22.15;;;;;;;22.73;61.09;101818.78;5037646;28;20053;-65
2021/09/08 08:50:11;;;;;;;37.67;21.20;;;;;;;23.31;60.16;101819.38;5034722;28;20045;-65
2021/09/08 08:52:39;;;;;;;38.47;21.23;;;;;;;23.33;60.48;101817.41;5037078;28;20091;-69
2021/09/08 08:55:11;;;;;;;40.03;21.92;;;;;;;23.66;59.47;101810.50;5035423;28;20147;-69
2021/09/08 08:57:40;;;;;;;38.50;21.92;;;;;;;23.65;58.77;101816.94;5040562;28;20424;-69
2021/09/08 09:00:10;;;;;;;35.50;22.02;;;;;;;23.40;59.23;101812.41;5035395;28;20132;-69
2021/09/08 09:02:39;;;;;;;39.33;21.35;;;;;;;23.87;59.00;101808.09;5037765;28;20049;-65
2021/09/08 09:05:08;;;;;;;36.78;21.42;;;;;;;23.93;58.90;101804.94;5038880;28;20069;-65
2021/09/08 09:07:42;;;;;;;36.30;20.67;;;;;;;24.05;58.81;101809.47;5035486;28;20037;-65
2021/09/08 09:10:14;;;;;;;40.53;22.15;;;;;;;23.63;59.09;101811.63;5038633;28;20432;-65
2021/09/08 09:12:45;;;;;;;35.97;20.52;;;;;;;23.89;58.48;101808.88;5037870;28;20041;-64
2021/09/08 09:15:16;;;;;;;37.63;21.45;;;;;;;24.22;58.46;101800.03;5038605;28;20099;-65
2021/09/08 09:17:44;;;;;;;41.50;22.15;;;;;;;24.01;58.25;101807.13;5035812;28;20095;-65
2021/09/08 09:20:20;;;;;;;35.47;19.77;;;;;;;24.22;58.26;101786.41;5040139;28;20369;-70
2021/09/08 09:22:50;;;;;;;32.50;19.48;;;;;;;24.56;57.13;101789.34;5040492;28;20442;-68
2021/09/08 09:25:21;;;;;;;35.35;20.80;;;;;;;24.38;57.37;101786.13;5033923;28;20053;-70
2021/09/08 09:27:51;;;;;;;35.03;20.30;;;;;;;24.57;56.46;101790.22;5037855;28;20045;-69
2021/09/08 09:30:21;;;;;;;39.03;21.38;;;;;;;24.87;55.87;101789.69;5036553;28;20048;-70
2021/09/08 09:32:50;;;;;;;34.75;19.40;;;;;;;24.88;54.81;101787.84;5035649;28;20053;-66
2021/09/08 09:35:20;;;;;;;34.83;19.95;;;;;;;24.77;55.20;101792.28;5034472;28;20059;-66
2021/09/08 09:37:50;;;;;;;34.47;19.35;;;;;;;25.12;54.67;101794.09;5037581;28;20064;-70
2021/09/08 09:40:24;;;;;;;31.27;19.20;;;;;;;24.94;55.01;101790.09;5035890;28;20351;-70
2021/09/08 09:42:52;;;;;;;33.30;18.92;;;;;;;25.26;53.95;101786.72;5037328;28;20056;-70
2021/09/08 09:45:20;;;;;;;36.22;20.02;;;;;;;25.26;53.50;101790.31;5038911;28;20095;-70
2021/09/08 09:47:50;;;;;;;29.27;18.45;;;;;;;25.40;53.26;101789.22;5034514;28;20437;-70
2021/09/08 09:50:20;;;;;;;32.83;18.45;;;;;;;25.46;52.60;101791.47;5037665;28;20080;-69
2021/09/08 09:52:48;;;;;;;31.25;17.67;;;;;;;25.52;52.32;101787.34;5037635;28;20459;-70
2021/09/08 09:55:17;;;;;;;29.70;17.80;;;;;;;25.35;52.24;101786.88;5035212;28;20519;-70
2021/09/08 09:57:46;;;;;;;33.45;18.75;;;;;;;25.63;51.37;101783.78;5036397;28;20103;-69
2021/09/08 10:00:16;;;;;;;33.22;17.98;;;;;;;25.63;51.37;101781.91;5038500;28;20136;-70
2021/09/08 10:02:45;;;;;;;30.13;18.75;;;;;;;25.63;51.36;101775.56;5037063;28;20149;-70
2021/09/08 10:05:14;;;;;;;37.85;19.67;;;;;;;25.86;51.36;101773.66;5034862;28;20547;-70
2021/09/08 10:07:43;;;;;;;32.47;20.05;;;;;;;25.57;51.79;101771.44;5036795;28;20053;-70
2021/09/08 10:10:14;;;;;;;37.95;19.75;;;;;;;25.49;51.44;101771.22;5035236;28;20544;-70
2021/09/08 10:12:49;;;;;;;33.70;19.73;;;;;;;25.66;51.27;101768.00;5034418;28;20057;-70
2021/09/08 10:15:19;;;;;;;28.00;16.83;;;;;;;25.87;50.84;101767.22;5038498;28;20063;-70
2021/09/08 10:17:48;;;;;;;34.10;19.42;;;;;;;25.85;51.05;101748.22;5032939;28;20051;-69
2021/09/08 10:20:18;;;;;;;35.08;18.77;;;;;;;26.29;50.18;101756.47;5036923;28;20160;-70
2021/09/08 10:22:47;;;;;;;33.25;18.98;;;;;;;26.19;49.64;101758.25;5035135;28;20281;-69
2021/09/08 10:25:18;;;;;;;30.52;18.25;;;;;;;26.38;49.25;101752.94;5038050;28;20048;-65
2021/09/08 10:27:53;;;;;;;32.42;17.65;;;;;;;26.28;49.19;101746.50;5035335;28;20165;-66
2021/09/08 10:30:36;;;;;;;30.70;17.85;;;;;;;26.73;48.95;101749.09;5034319;28;20052;-65
2021/09/08 10:33:07;;;;;;;34.85;17.52;;;;;;;26.92;48.05;101741.97;5036230;28;20550;-66
2021/09/08 10:35:38;;;;;;;29.60;16.67;;;;;;;26.91;47.92;101740.25;5034568;28;20123;-69
2021/09/08 10:38:16;;;;;;;28.83;17.65;;;;;;;27.06;47.67;101743.53;5035313;28;20621;-71
2021/09/08 10:40:45;;;;;;;28.77;16.92;;;;;;;27.14;47.32;101733.63;5032530;28;20055;-72
2021/09/08 10:43:16;;;;;;;29.35;17.75;;;;;;;27.14;47.19;101739.09;5035875;28;20056;-70
2021/09/08 10:45:52;;;;;;;30.60;17.75;;;;;;;26.77;47.57;101723.16;5036666;28;20100;-65
2021/09/08 10:48:40;;;;;;;31.67;18.85;;;;;;;26.55;47.58;101721.38;5034251;28;20465;-70
2021/09/08 10:51:09;;;;;;;26.55;16.33;;;;;;;26.96;47.02;101718.81;5043444;28;20057;-69
2021/09/08 10:53:39;;;;;;;28.52;16.27;;;;;;;27.32;46.27;101711.97;5033285;28;20087;-71
2021/09/08 10:56:08;;;;;;;28.30;15.95;;;;;;;27.53;45.34;101711.91;5036978;28;20057;-68
2021/09/08 10:58:58;;;;;;;26.63;15.27;;;;;;;27.44;43.98;101707.25;5032037;28;20175;-70
2021/09/08 11:01:28;;;;;;;26.52;16.02;;;;;;;27.52;45.01;101698.34;5037276;28;20053;-65
2021/09/08 11:03:57;;;;;;;28.20;16.25;;;;;;;27.33;45.84;101704.63;5034089;28;20440;-65
2021/09/08 11:06:39;;;;;;;29.73;17.23;;;;;;;27.17;46.29;101699.59;5036198;28;20053;-64
2021/09/08 11:09:09;;;;;;;33.40;18.17;;;;;;;27.58;45.37;101693.19;5038437;28;20056;-65
2021/09/08 11:11:55;;;;;;;28.95;15.00;;;;;;;27.92;45.54;101687.38;5033547;28;20076;-64
2021/09/08 11:14:47;;;;;;;28.80;16.35;;;;;;;27.71;44.26;101689.31;5034758;28;20095;-64
2021/09/08 11:17:22;;;;;;;29.38;17.02;;;;;;;27.70;45.19;101684.81;5032485;28;20060;-66